sensor_id;sensor_type;location;lat;lon;timestamp;pressure;altitude;pressure_sealevel;temperature;humidity
10462;BME280;5278;42.656;23.374;2023-05-22T00:00:31;94402.78;;;16.33;82.19
10462;BME280;5278;42.656;23.374;2023-05-22T00:03:00;94394.28;;;16.38;82.30
10462;BME280;5278;42.656;23.374;2023-05-22T00:05:29;94398.06;;;16.42;82.10
10462;BME280;5278;42.656;23.374;2023-05-22T00:07:58;94388.22;;;16.38;81.77
10462;BME280;5278;42.656;23.374;2023-05-22T00:10:25;94400.84;;;16.47;81.92
10462;BME280;5278;42.656;23.374;2023-05-22T00:12:52;94401.81;;;16.53;81.54
10462;BME280;5278;42.656;23.374;2023-05-22T00:15:19;94387.44;;;16.55;81.53
10462;BME280;5278;42.656;23.374;2023-05-22T00:17:46;94354.34;;;16.36;81.21
10462;BME280;5278;42.656;23.374;2023-05-22T00:20:13;94381.25;;;16.50;80.91
10462;BME280;5278;42.656;23.374;2023-05-22T00:22:42;94383.78;;;16.63;80.83
10462;BME280;5278;42.656;23.374;2023-05-22T00:25:09;94386.31;;;16.69;81.03
10462;BME280;5278;42.656;23.374;2023-05-22T00:27:37;94387.66;;;16.78;81.61
10462;BME280;5278;42.656;23.374;2023-05-22T00:30:06;94392.25;;;16.83;82.00
10462;BME280;5278;42.656;23.374;2023-05-22T00:32:34;94394.06;;;16.83;82.47
10462;BME280;5278;42.656;23.374;2023-05-22T00:35:01;94263.13;;;16.02;82.16
10462;BME280;5278;42.656;23.374;2023-05-22T00:37:28;94382.28;;;16.73;81.89
10462;BME280;5278;42.656;23.374;2023-05-22T00:39:59;94391.34;;;16.71;81.75
10462;BME280;5278;42.656;23.374;2023-05-22T00:42:26;94396.47;;;16.66;81.83
10462;BME280;5278;42.656;23.374;2023-05-22T00:44:54;94392.31;;;16.58;82.14
10462;BME280;5278;42.656;23.374;2023-05-22T00:47:21;94394.50;;;16.55;82.31
10462;BME280;5278;42.656;23.374;2023-05-22T00:49:48;94398.16;;;16.54;82.63
10462;BME280;5278;42.656;23.374;2023-05-22T00:52:15;94380.06;;;16.46;82.78
10462;BME280;5278;42.656;23.374;2023-05-22T00:54:44;94398.59;;;16.51;83.08
10462;BME280;5278;42.656;23.374;2023-05-22T00:57:13;94400.41;;;16.50;83.00
10462;BME280;5278;42.656;23.374;2023-05-22T00:59:40;94390.56;;;16.46;83.27
10462;BME280;5278;42.656;23.374;2023-05-22T01:02:07;94394.66;;;16.42;83.29
10462;BME280;5278;42.656;23.374;2023-05-22T01:04:34;94387.22;;;16.39;83.15
10462;BME280;5278;42.656;23.374;2023-05-22T01:07:02;94389.84;;;16.39;83.58
10462;BME280;5278;42.656;23.374;2023-05-22T01:09:30;94387.38;;;16.44;83.49
10462;BME280;5278;42.656;23.374;2023-05-22T01:12:05;94393.19;;;16.46;83.44
10462;BME280;5278;42.656;23.374;2023-05-22T01:14:44;94396.19;;;16.49;83.17
10462;BME280;5278;42.656;23.374;2023-05-22T01:17:18;94390.72;;;16.51;82.94
10462;BME280;5278;42.656;23.374;2023-05-22T01:20:01;94356.75;;;16.38;82.66
10462;BME280;5278;42.656;23.374;2023-05-22T01:23:02;94392.47;;;16.57;82.65
10462;BME280;5278;42.656;23.374;2023-05-22T01:26:12;94384.44;;;16.58;83.34
10462;BME280;5278;42.656;23.374;2023-05-22T01:31:48;94384.44;;;16.58;83.15
10462;BME280;5278;42.656;23.374;2023-05-22T01:34:16;94381.19;;;16.56;83.09
10462;BME280;5278;42.656;23.374;2023-05-22T01:36:45;94372.16;;;16.52;83.13
10462;BME280;5278;42.656;23.374;2023-05-22T01:39:16;94374.53;;;16.54;82.99
10462;BME280;5278;42.656;23.374;2023-05-22T01:41:43;94371.13;;;16.53;83.04
10462;BME280;5278;42.656;23.374;2023-05-22T01:44:11;94375.19;;;16.49;83.13
10462;BME280;5278;42.656;23.374;2023-05-22T01:46:40;94367.97;;;16.45;83.23
10462;BME280;5278;42.656;23.374;2023-05-22T01:49:08;94376.13;;;16.36;83.44
10462;BME280;5278;42.656;23.374;2023-05-22T01:51:42;94366.19;;;16.20;83.94
10462;BME280;5278;42.656;23.374;2023-05-22T01:54:18;94371.59;;;16.25;84.12
10462;BME280;5278;42.656;23.374;2023-05-22T01:56:52;94369.97;;;16.24;84.23
10462;BME280;5278;42.656;23.374;2023-05-22T01:59:26;94363.94;;;16.24;84.06
10462;BME280;5278;42.656;23.374;2023-05-22T02:01:59;94373.41;;;16.25;84.32
10462;BME280;5278;42.656;23.374;2023-05-22T02:04:31;94369.41;;;16.22;84.58
10462;BME280;5278;42.656;23.374;2023-05-22T02:06:58;94361.47;;;16.04;84.97
10462;BME280;5278;42.656;23.374;2023-05-22T02:09:28;94367.81;;;15.97;85.40
10462;BME280;5278;42.656;23.374;2023-05-22T02:11:57;94369.91;;;15.88;86.19
10462;BME280;5278;42.656;23.374;2023-05-22T02:14:24;94374.91;;;15.89;86.44
10462;BME280;5278;42.656;23.374;2023-05-22T02:16:52;94369.28;;;15.86;86.70
10462;BME280;5278;42.656;23.374;2023-05-22T02:19:21;94366.50;;;15.81;86.88
10462;BME280;5278;42.656;23.374;2023-05-22T02:21:50;94373.00;;;15.78;87.11
10462;BME280;5278;42.656;23.374;2023-05-22T02:24:18;94372.19;;;15.78;87.58
10462;BME280;5278;42.656;23.374;2023-05-22T02:26:45;94373.63;;;15.74;87.77
10462;BME280;5278;42.656;23.374;2023-05-22T02:29:13;94371.41;;;15.71;88.11
10462;BME280;5278;42.656;23.374;2023-05-22T02:31:40;94385.94;;;15.67;88.25
10462;BME280;5278;42.656;23.374;2023-05-22T02:34:07;94378.53;;;15.64;88.39
10462;BME280;5278;42.656;23.374;2023-05-22T02:36:34;94375.94;;;15.57;88.55
10462;BME280;5278;42.656;23.374;2023-05-22T02:39:03;94378.34;;;15.59;88.58
10462;BME280;5278;42.656;23.374;2023-05-22T02:41:30;94376.31;;;15.61;88.68
10462;BME280;5278;42.656;23.374;2023-05-22T02:43:57;94375.13;;;15.57;88.51
10462;BME280;5278;42.656;23.374;2023-05-22T02:46:23;94349.03;;;15.37;88.92
10462;BME280;5278;42.656;23.374;2023-05-22T02:48:50;94331.56;;;15.31;88.73
10462;BME280;5278;42.656;23.374;2023-05-22T02:51:17;94363.28;;;15.54;88.25
10462;BME280;5278;42.656;23.374;2023-05-22T02:53:44;94357.66;;;15.44;88.43
10462;BME280;5278;42.656;23.374;2023-05-22T02:56:13;94371.13;;;15.47;88.12
10462;BME280;5278;42.656;23.374;2023-05-22T02:58:40;94369.72;;;15.52;88.26
10462;BME280;5278;42.656;23.374;2023-05-22T03:01:07;94371.91;;;15.55;88.50
10462;BME280;5278;42.656;23.374;2023-05-22T03:03:34;94367.72;;;15.54;88.39
10462;BME280;5278;42.656;23.374;2023-05-22T03:06:02;94364.28;;;15.46;88.02
10462;BME280;5278;42.656;23.374;2023-05-22T03:08:29;94369.19;;;15.36;88.93
10462;BME280;5278;42.656;23.374;2023-05-22T03:10:57;94367.66;;;15.22;89.12
10462;BME280;5278;42.656;23.374;2023-05-22T03:13:25;94365.09;;;15.09;89.10
10462;BME280;5278;42.656;23.374;2023-05-22T03:15:52;94373.72;;;15.09;89.31
10462;BME280;5278;42.656;23.374;2023-05-22T03:18:19;94375.16;;;15.05;89.73
10462;BME280;5278;42.656;23.374;2023-05-22T03:20:47;94380.00;;;15.08;90.14
10462;BME280;5278;42.656;23.374;2023-05-22T03:23:14;94378.56;;;15.13;90.02
10462;BME280;5278;42.656;23.374;2023-05-22T03:25:42;94380.56;;;15.17;90.32
10462;BME280;5278;42.656;23.374;2023-05-22T03:28:09;94376.94;;;15.18;90.02
10462;BME280;5278;42.656;23.374;2023-05-22T03:30:37;94378.53;;;15.19;90.10
10462;BME280;5278;42.656;23.374;2023-05-22T03:33:05;94385.34;;;15.27;89.70
10462;BME280;5278;42.656;23.374;2023-05-22T03:35:33;94378.47;;;15.32;89.48
10462;BME280;5278;42.656;23.374;2023-05-22T03:38:00;94378.88;;;15.29;89.83
10462;BME280;5278;42.656;23.374;2023-05-22T03:40:27;94384.88;;;15.36;89.07
10462;BME280;5278;42.656;23.374;2023-05-22T03:42:54;94378.44;;;15.39;89.08
10462;BME280;5278;42.656;23.374;2023-05-22T03:45:21;94376.38;;;15.47;89.05
10462;BME280;5278;42.656;23.374;2023-05-22T03:47:50;94376.56;;;15.46;89.14
10462;BME280;5278;42.656;23.374;2023-05-22T03:50:18;94373.53;;;15.56;89.19
10462;BME280;5278;42.656;23.374;2023-05-22T03:52:45;94374.22;;;15.69;88.69
10462;BME280;5278;42.656;23.374;2023-05-22T03:55:12;94378.81;;;15.80;88.35
10462;BME280;5278;42.656;23.374;2023-05-22T03:57:39;94380.75;;;15.91;87.40
10462;BME280;5278;42.656;23.374;2023-05-22T04:00:07;94377.69;;;15.94;86.67
10462;BME280;5278;42.656;23.374;2023-05-22T04:02:36;94359.19;;;15.89;86.71
10462;BME280;5278;42.656;23.374;2023-05-22T04:05:10;94387.16;;;16.20;86.46
10462;BME280;5278;42.656;23.374;2023-05-22T04:07:37;94387.22;;;16.39;85.42
10462;BME280;5278;42.656;23.374;2023-05-22T04:10:05;94387.06;;;16.58;84.96
10462;BME280;5278;42.656;23.374;2023-05-22T04:12:32;94374.91;;;16.82;83.85
10462;BME280;5278;42.656;23.374;2023-05-22T04:14:59;94373.50;;;17.16;82.20
10462;BME280;5278;42.656;23.374;2023-05-22T04:17:30;94382.84;;;17.60;80.26
10462;BME280;5278;42.656;23.374;2023-05-22T04:19:57;94396.66;;;17.97;77.94
10462;BME280;5278;42.656;23.374;2023-05-22T04:22:26;94308.53;;;17.83;76.34
10462;BME280;5278;42.656;23.374;2023-05-22T04:24:55;94348.00;;;18.41;75.38
10462;BME280;5278;42.656;23.374;2023-05-22T04:27:22;94385.50;;;18.95;73.93
10462;BME280;5278;42.656;23.374;2023-05-22T04:29:51;94395.34;;;19.39;70.80
10462;BME280;5278;42.656;23.374;2023-05-22T04:32:18;94387.78;;;19.54;70.16
10462;BME280;5278;42.656;23.374;2023-05-22T04:34:47;94389.13;;;19.85;68.90
10462;BME280;5278;42.656;23.374;2023-05-22T04:37:15;94384.22;;;20.22;66.96
10462;BME280;5278;42.656;23.374;2023-05-22T04:39:45;94381.56;;;20.72;65.24
10462;BME280;5278;42.656;23.374;2023-05-22T04:42:12;94381.09;;;21.14;62.69
10462;BME280;5278;42.656;23.374;2023-05-22T04:44:40;94369.84;;;21.45;61.48
10462;BME280;5278;42.656;23.374;2023-05-22T04:47:08;94375.28;;;21.87;59.98
10462;BME280;5278;42.656;23.374;2023-05-22T04:49:38;94384.59;;;22.16;58.86
10462;BME280;5278;42.656;23.374;2023-05-22T04:52:06;94374.91;;;22.69;57.04
10462;BME280;5278;42.656;23.374;2023-05-22T04:54:36;94382.16;;;23.26;54.58
10462;BME280;5278;42.656;23.374;2023-05-22T04:57:05;94339.84;;;23.51;52.64
10462;BME280;5278;42.656;23.374;2023-05-22T04:59:35;94377.66;;;24.29;50.97
10462;BME280;5278;42.656;23.374;2023-05-22T05:02:04;94287.09;;;24.20;49.31
10462;BME280;5278;42.656;23.374;2023-05-22T05:04:30;94376.47;;;25.21;47.46
10462;BME280;5278;42.656;23.374;2023-05-22T05:06:57;94350.72;;;25.11;46.34
10462;BME280;5278;42.656;23.374;2023-05-22T05:09:24;94379.34;;;25.99;45.14
10462;BME280;5278;42.656;23.374;2023-05-22T05:11:52;94363.63;;;25.97;43.94
10462;BME280;5278;42.656;23.374;2023-05-22T05:14:21;94374.97;;;26.13;44.04
10462;BME280;5278;42.656;23.374;2023-05-22T05:16:48;94379.88;;;26.40;43.60
10462;BME280;5278;42.656;23.374;2023-05-22T05:19:17;94382.31;;;26.65;42.42
10462;BME280;5278;42.656;23.374;2023-05-22T05:21:46;94388.31;;;26.81;41.74
10462;BME280;5278;42.656;23.374;2023-05-22T05:24:14;94375.72;;;27.15;40.96
10462;BME280;5278;42.656;23.374;2023-05-22T05:26:41;94378.53;;;27.48;40.65
10462;BME280;5278;42.656;23.374;2023-05-22T05:29:10;94371.38;;;27.67;39.85
10462;BME280;5278;42.656;23.374;2023-05-22T05:31:39;94373.94;;;27.77;39.89
10462;BME280;5278;42.656;23.374;2023-05-22T05:34:07;94377.72;;;28.13;38.91
10462;BME280;5278;42.656;23.374;2023-05-22T05:36:34;94376.75;;;28.42;38.25
10462;BME280;5278;42.656;23.374;2023-05-22T05:39:01;94375.91;;;28.60;38.32
10462;BME280;5278;42.656;23.374;2023-05-22T05:41:28;94373.38;;;28.68;37.89
10462;BME280;5278;42.656;23.374;2023-05-22T05:43:56;94372.97;;;29.07;36.15
10462;BME280;5278;42.656;23.374;2023-05-22T05:46:25;94373.34;;;29.15;35.47
10462;BME280;5278;42.656;23.374;2023-05-22T05:48:54;94372.78;;;29.04;35.55
10462;BME280;5278;42.656;23.374;2023-05-22T05:51:22;94374.56;;;29.22;35.88
10462;BME280;5278;42.656;23.374;2023-05-22T05:53:49;94379.75;;;29.46;34.50
10462;BME280;5278;42.656;23.374;2023-05-22T05:56:16;94388.28;;;29.48;34.17
10462;BME280;5278;42.656;23.374;2023-05-22T05:58:44;94374.38;;;29.60;32.10
10462;BME280;5278;42.656;23.374;2023-05-22T06:01:11;94378.94;;;29.73;32.31
10462;BME280;5278;42.656;23.374;2023-05-22T06:03:38;94382.22;;;29.56;30.57
10462;BME280;5278;42.656;23.374;2023-05-22T06:06:07;94375.19;;;29.46;31.08
10462;BME280;5278;42.656;23.374;2023-05-22T06:08:34;94367.81;;;29.25;30.67
10462;BME280;5278;42.656;23.374;2023-05-22T06:11:01;94385.22;;;28.95;31.89
10462;BME280;5278;42.656;23.374;2023-05-22T06:13:30;94386.44;;;28.70;32.44
10462;BME280;5278;42.656;23.374;2023-05-22T06:15:58;94378.91;;;28.40;31.88
10462;BME280;5278;42.656;23.374;2023-05-22T06:18:25;94366.00;;;28.28;32.32
10462;BME280;5278;42.656;23.374;2023-05-22T06:20:52;94376.72;;;28.79;32.06
10462;BME280;5278;42.656;23.374;2023-05-22T06:23:22;94383.13;;;29.38;31.99
10462;BME280;5278;42.656;23.374;2023-05-22T06:25:49;94377.06;;;29.73;29.28
10462;BME280;5278;42.656;23.374;2023-05-22T06:28:16;94379.53;;;29.97;29.12
10462;BME280;5278;42.656;23.374;2023-05-22T06:30:44;94378.16;;;29.31;30.10
10462;BME280;5278;42.656;23.374;2023-05-22T06:33:11;94386.53;;;28.65;30.82
10462;BME280;5278;42.656;23.374;2023-05-22T06:35:39;94381.25;;;28.60;31.73
10462;BME280;5278;42.656;23.374;2023-05-22T06:38:06;94381.47;;;29.09;30.87
10462;BME280;5278;42.656;23.374;2023-05-22T06:40:36;94380.16;;;29.53;30.56
10462;BME280;5278;42.656;23.374;2023-05-22T06:43:03;94381.69;;;29.81;28.92
10462;BME280;5278;42.656;23.374;2023-05-22T06:45:30;94378.16;;;29.72;29.14
10462;BME280;5278;42.656;23.374;2023-05-22T06:47:56;94381.63;;;30.22;28.72
10462;BME280;5278;42.656;23.374;2023-05-22T06:50:24;94383.44;;;30.71;27.86
10462;BME280;5278;42.656;23.374;2023-05-22T06:52:51;94386.28;;;30.97;27.40
10462;BME280;5278;42.656;23.374;2023-05-22T06:55:17;94387.38;;;30.74;27.66
10462;BME280;5278;42.656;23.374;2023-05-22T06:57:46;94384.31;;;30.58;28.00
10462;BME280;5278;42.656;23.374;2023-05-22T07:00:13;94377.69;;;30.64;28.25
10462;BME280;5278;42.656;23.374;2023-05-22T07:02:40;94378.59;;;30.38;28.76
10462;BME280;5278;42.656;23.374;2023-05-22T07:05:08;94374.50;;;30.18;28.51
10462;BME280;5278;42.656;23.374;2023-05-22T07:07:36;94385.78;;;30.28;28.65
10462;BME280;5278;42.656;23.374;2023-05-22T07:10:03;94366.28;;;30.36;28.41
10462;BME280;5278;42.656;23.374;2023-05-22T07:12:30;94382.59;;;30.62;27.90
10462;BME280;5278;42.656;23.374;2023-05-22T07:14:59;94375.13;;;30.59;27.74
10462;BME280;5278;42.656;23.374;2023-05-22T07:17:26;94380.19;;;30.39;28.47
10462;BME280;5278;42.656;23.374;2023-05-22T07:19:53;94376.34;;;30.31;28.75
10462;BME280;5278;42.656;23.374;2023-05-22T07:22:21;94377.34;;;30.57;28.78
10462;BME280;5278;42.656;23.374;2023-05-22T07:24:48;94372.25;;;30.33;28.45
10462;BME280;5278;42.656;23.374;2023-05-22T07:27:15;94384.59;;;29.71;29.91
10462;BME280;5278;42.656;23.374;2023-05-22T07:29:42;94376.22;;;29.04;30.90
10462;BME280;5278;42.656;23.374;2023-05-22T07:32:11;94363.94;;;28.57;32.56
10462;BME280;5278;42.656;23.374;2023-05-22T07:34:38;94375.81;;;28.65;34.36
10462;BME280;5278;42.656;23.374;2023-05-22T07:37:07;94374.47;;;28.67;33.04
10462;BME280;5278;42.656;23.374;2023-05-22T07:39:35;94379.16;;;28.89;35.02
10462;BME280;5278;42.656;23.374;2023-05-22T07:42:02;94381.47;;;29.09;32.16
10462;BME280;5278;42.656;23.374;2023-05-22T07:44:31;94375.19;;;29.33;32.85
10462;BME280;5278;42.656;23.374;2023-05-22T07:46:58;94371.28;;;29.25;31.75
10462;BME280;5278;42.656;23.374;2023-05-22T07:49:26;94372.59;;;29.28;33.05
10462;BME280;5278;42.656;23.374;2023-05-22T07:51:53;94384.34;;;28.99;32.79
10462;BME280;5278;42.656;23.374;2023-05-22T07:54:20;94363.56;;;28.64;32.80
10462;BME280;5278;42.656;23.374;2023-05-22T07:56:47;94373.72;;;28.30;33.84
10462;BME280;5278;42.656;23.374;2023-05-22T07:59:15;94377.28;;;28.76;33.08
10462;BME280;5278;42.656;23.374;2023-05-22T08:01:44;94370.72;;;29.42;31.92
10462;BME280;5278;42.656;23.374;2023-05-22T08:04:10;94369.72;;;29.92;31.99
10462;BME280;5278;42.656;23.374;2023-05-22T08:06:39;94373.56;;;29.86;30.89
10462;BME280;5278;42.656;23.374;2023-05-22T08:09:09;94371.38;;;29.88;30.04
10462;BME280;5278;42.656;23.374;2023-05-22T08:11:38;94364.13;;;29.89;30.29
10462;BME280;5278;42.656;23.374;2023-05-22T08:14:06;94368.16;;;30.36;29.50
10462;BME280;5278;42.656;23.374;2023-05-22T08:16:33;94368.13;;;30.72;29.19
10462;BME280;5278;42.656;23.374;2023-05-22T08:19:00;94365.34;;;31.08;28.44
10462;BME280;5278;42.656;23.374;2023-05-22T08:21:27;94368.25;;;31.59;28.12
10462;BME280;5278;42.656;23.374;2023-05-22T08:23:55;94368.38;;;32.11;27.34
10462;BME280;5278;42.656;23.374;2023-05-22T08:26:23;94369.44;;;31.93;26.39
10462;BME280;5278;42.656;23.374;2023-05-22T08:28:50;94373.31;;;31.70;26.37
10462;BME280;5278;42.656;23.374;2023-05-22T08:31:17;94366.13;;;32.13;26.60
10462;BME280;5278;42.656;23.374;2023-05-22T08:33:45;94354.41;;;32.09;25.80
10462;BME280;5278;42.656;23.374;2023-05-22T08:36:12;94284.50;;;32.18;25.90
10462;BME280;5278;42.656;23.374;2023-05-22T08:38:40;94358.22;;;33.70;24.17
10462;BME280;5278;42.656;23.374;2023-05-22T08:41:08;94352.34;;;33.68;21.78
10462;BME280;5278;42.656;23.374;2023-05-22T08:43:39;94360.81;;;33.87;22.61
10462;BME280;5278;42.656;23.374;2023-05-22T08:46:14;94358.31;;;34.44;21.87
10462;BME280;5278;42.656;23.374;2023-05-22T08:48:41;94360.94;;;34.53;22.15
10462;BME280;5278;42.656;23.374;2023-05-22T08:51:12;94350.63;;;35.21;21.99
10462;BME280;5278;42.656;23.374;2023-05-22T08:53:40;94365.03;;;35.25;20.41
10462;BME280;5278;42.656;23.374;2023-05-22T08:56:11;94369.88;;;34.86;20.94
10462;BME280;5278;42.656;23.374;2023-05-22T08:58:39;94360.00;;;34.37;22.01
10462;BME280;5278;42.656;23.374;2023-05-22T09:01:07;94363.66;;;34.11;21.95
10462;BME280;5278;42.656;23.374;2023-05-22T09:03:35;94348.47;;;34.07;23.02
10462;BME280;5278;42.656;23.374;2023-05-22T09:06:02;94369.56;;;34.05;22.17
10462;BME280;5278;42.656;23.374;2023-05-22T09:08:34;94339.00;;;33.63;22.31
10462;BME280;5278;42.656;23.374;2023-05-22T09:11:03;94368.38;;;33.26;22.44
10462;BME280;5278;42.656;23.374;2023-05-22T09:13:31;94348.66;;;32.97;21.65
10462;BME280;5278;42.656;23.374;2023-05-22T09:15:59;94359.31;;;32.59;22.06
10462;BME280;5278;42.656;23.374;2023-05-22T09:18:35;94341.59;;;31.97;24.62
10462;BME280;5278;42.656;23.374;2023-05-22T09:21:03;94346.56;;;31.56;23.27
10462;BME280;5278;42.656;23.374;2023-05-22T09:23:31;94339.03;;;31.84;24.00
10462;BME280;5278;42.656;23.374;2023-05-22T09:25:59;94353.47;;;32.14;23.74
10462;BME280;5278;42.656;23.374;2023-05-22T09:28:33;94313.25;;;32.00;23.50
10462;BME280;5278;42.656;23.374;2023-05-22T09:31:01;94343.38;;;32.28;23.57
10462;BME280;5278;42.656;23.374;2023-05-22T09:33:30;94357.84;;;31.75;23.54
10462;BME280;5278;42.656;23.374;2023-05-22T09:35:58;94352.31;;;30.70;24.74
10462;BME280;5278;42.656;23.374;2023-05-22T09:38:27;94351.13;;;29.96;25.89
10462;BME280;5278;42.656;23.374;2023-05-22T09:40:56;94340.19;;;29.43;26.18
10462;BME280;5278;42.656;23.374;2023-05-22T09:43:24;94352.28;;;29.40;26.18
10462;BME280;5278;42.656;23.374;2023-05-22T09:45:59;94342.03;;;29.15;26.16
10462;BME280;5278;42.656;23.374;2023-05-22T09:48:32;94351.16;;;28.36;27.38
10462;BME280;5278;42.656;23.374;2023-05-22T09:50:59;94360.22;;;28.02;27.38
10462;BME280;5278;42.656;23.374;2023-05-22T09:53:28;94368.56;;;27.34;28.50
10462;BME280;5278;42.656;23.374;2023-05-22T09:55:59;94366.78;;;26.72;29.23
10462;BME280;5278;42.656;23.374;2023-05-22T09:58:31;94332.44;;;26.03;29.55
10462;BME280;5278;42.656;23.374;2023-05-22T10:01:01;94361.13;;;26.11;31.79
10462;BME280;5278;42.656;23.374;2023-05-22T10:03:30;94363.03;;;26.05;31.02
10462;BME280;5278;42.656;23.374;2023-05-22T10:05:57;94367.75;;;26.19;31.10
10462;BME280;5278;42.656;23.374;2023-05-22T10:08:27;94366.69;;;26.53;34.02
10462;BME280;5278;42.656;23.374;2023-05-22T10:10:54;94359.81;;;26.76;33.98
10462;BME280;5278;42.656;23.374;2023-05-22T10:13:23;94360.44;;;26.97;34.16
10462;BME280;5278;42.656;23.374;2023-05-22T10:15:51;94281.75;;;26.42;34.07
10462;BME280;5278;42.656;23.374;2023-05-22T10:18:20;94353.63;;;26.81;35.13
10462;BME280;5278;42.656;23.374;2023-05-22T10:20:47;94365.53;;;26.65;35.29
10462;BME280;5278;42.656;23.374;2023-05-22T10:23:16;94350.53;;;26.01;35.82
10462;BME280;5278;42.656;23.374;2023-05-22T10:25:43;94331.03;;;25.12;37.53
10462;BME280;5278;42.656;23.374;2023-05-22T10:28:13;94364.34;;;24.95;38.98
10462;BME280;5278;42.656;23.374;2023-05-22T10:30:49;94375.00;;;24.49;41.04
10462;BME280;5278;42.656;23.374;2023-05-22T10:33:22;94436.00;;;23.36;50.42
10462;BME280;5278;42.656;23.374;2023-05-22T10:35:51;94416.03;;;22.40;55.93
10462;BME280;5278;42.656;23.374;2023-05-22T10:38:49;94419.41;;;22.03;61.52
10462;BME280;5278;42.656;23.374;2023-05-22T10:41:21;94403.22;;;22.00;61.68
10462;BME280;5278;42.656;23.374;2023-05-22T10:43:48;94393.78;;;22.41;60.36
10462;BME280;5278;42.656;23.374;2023-05-22T10:46:15;94392.59;;;22.95;58.67
10462;BME280;5278;42.656;23.374;2023-05-22T10:48:46;94388.91;;;23.58;60.97
10462;BME280;5278;42.656;23.374;2023-05-22T10:51:14;94359.03;;;23.98;58.08
10462;BME280;5278;42.656;23.374;2023-05-22T10:53:43;94381.09;;;24.80;55.94
10462;BME280;5278;42.656;23.374;2023-05-22T10:56:11;94365.78;;;25.31;60.59
10462;BME280;5278;42.656;23.374;2023-05-22T10:58:43;94374.97;;;25.74;54.84
10462;BME280;5278;42.656;23.374;2023-05-22T11:01:12;94367.00;;;26.08;55.72
10462;BME280;5278;42.656;23.374;2023-05-22T11:03:55;94362.47;;;26.47;52.17
10462;BME280;5278;42.656;23.374;2023-05-22T11:06:35;94355.50;;;27.09;54.20
10462;BME280;5278;42.656;23.374;2023-05-22T11:09:27;94365.25;;;27.85;54.00
10462;BME280;5278;42.656;23.374;2023-05-22T11:12:23;94348.38;;;28.08;51.69
10462;BME280;5278;42.656;23.374;2023-05-22T11:14:54;94328.03;;;27.94;53.20
10462;BME280;5278;42.656;23.374;2023-05-22T11:17:23;94348.75;;;27.64;52.64
10462;BME280;5278;42.656;23.374;2023-05-22T11:20:03;94360.00;;;27.14;52.70
10462;BME280;5278;42.656;23.374;2023-05-22T11:22:35;94380.66;;;25.42;45.50
10462;BME280;5278;42.656;23.374;2023-05-22T11:25:06;94410.25;;;23.89;51.39
10462;BME280;5278;42.656;23.374;2023-05-22T11:27:33;94400.63;;;23.10;48.84
10462;BME280;5278;42.656;23.374;2023-05-22T11:30:00;94417.72;;;22.51;55.49
10462;BME280;5278;42.656;23.374;2023-05-22T11:32:27;94414.28;;;22.23;56.77
10462;BME280;5278;42.656;23.374;2023-05-22T11:34:56;94413.72;;;22.16;56.99
10462;BME280;5278;42.656;23.374;2023-05-22T11:37:24;94420.44;;;21.54;54.33
10462;BME280;5278;42.656;23.374;2023-05-22T11:39:54;94429.22;;;21.16;57.19
10462;BME280;5278;42.656;23.374;2023-05-22T11:42:22;94431.44;;;21.07;58.01
10462;BME280;5278;42.656;23.374;2023-05-22T11:44:49;94426.66;;;21.04;62.93
10462;BME280;5278;42.656;23.374;2023-05-22T11:47:17;94423.25;;;21.09;59.92
10462;BME280;5278;42.656;23.374;2023-05-22T11:49:44;94422.66;;;21.01;60.42
10462;BME280;5278;42.656;23.374;2023-05-22T11:52:11;94414.66;;;20.96;59.81
10462;BME280;5278;42.656;23.374;2023-05-22T11:54:44;94428.13;;;20.78;60.00
10462;BME280;5278;42.656;23.374;2023-05-22T11:57:12;94423.50;;;20.69;62.32
10462;BME280;5278;42.656;23.374;2023-05-22T11:59:39;94396.25;;;20.46;63.95
10462;BME280;5278;42.656;23.374;2023-05-22T12:02:06;94427.16;;;20.84;62.72
10462;BME280;5278;42.656;23.374;2023-05-22T12:04:36;94402.88;;;20.66;63.05
10462;BME280;5278;42.656;23.374;2023-05-22T12:07:04;94433.56;;;20.88;63.78
10462;BME280;5278;42.656;23.374;2023-05-22T12:09:32;94429.22;;;20.99;65.63
10462;BME280;5278;42.656;23.374;2023-05-22T12:12:01;94422.91;;;21.17;62.72
10462;BME280;5278;42.656;23.374;2023-05-22T12:14:29;94417.00;;;21.31;62.64
10462;BME280;5278;42.656;23.374;2023-05-22T12:16:57;94413.13;;;21.39;63.06
10462;BME280;5278;42.656;23.374;2023-05-22T12:19:26;94418.13;;;21.62;62.87
10462;BME280;5278;42.656;23.374;2023-05-22T12:21:53;94413.44;;;21.91;62.28
10462;BME280;5278;42.656;23.374;2023-05-22T12:24:20;94414.09;;;22.30;60.36
10462;BME280;5278;42.656;23.374;2023-05-22T12:26:51;94409.53;;;22.57;59.70
10462;BME280;5278;42.656;23.374;2023-05-22T12:29:21;94396.78;;;22.86;57.11
10462;BME280;5278;42.656;23.374;2023-05-22T12:31:48;94404.84;;;23.06;56.37
10462;BME280;5278;42.656;23.374;2023-05-22T12:34:17;94399.09;;;23.25;56.62
10462;BME280;5278;42.656;23.374;2023-05-22T12:36:45;94399.25;;;23.55;56.12
10462;BME280;5278;42.656;23.374;2023-05-22T12:39:15;94392.44;;;23.84;55.00
10462;BME280;5278;42.656;23.374;2023-05-22T12:41:44;94387.44;;;24.03;53.26
10462;BME280;5278;42.656;23.374;2023-05-22T12:44:11;94411.13;;;24.25;52.47
10462;BME280;5278;42.656;23.374;2023-05-22T12:46:40;94384.03;;;24.33;49.51
10462;BME280;5278;42.656;23.374;2023-05-22T12:49:07;94391.47;;;24.41;52.03
10462;BME280;5278;42.656;23.374;2023-05-22T12:51:34;94389.59;;;24.62;51.73
10462;BME280;5278;42.656;23.374;2023-05-22T12:54:01;94381.59;;;24.77;50.22
10462;BME280;5278;42.656;23.374;2023-05-22T12:56:29;94391.72;;;24.85;50.52
10462;BME280;5278;42.656;23.374;2023-05-22T12:58:56;94391.19;;;24.98;51.96
10462;BME280;5278;42.656;23.374;2023-05-22T13:01:23;94351.03;;;24.84;51.17
10462;BME280;5278;42.656;23.374;2023-05-22T13:03:52;94391.34;;;25.32;49.78
10462;BME280;5278;42.656;23.374;2023-05-22T13:06:19;94388.63;;;25.42;49.39
10462;BME280;5278;42.656;23.374;2023-05-22T13:08:47;94381.44;;;25.48;49.10
10462;BME280;5278;42.656;23.374;2023-05-22T13:11:13;94360.44;;;25.36;50.05